sensor_id;sensor_type;location;lat;lon;timestamp;P1;durP1;ratioP1;P2;durP2;ratioP2
76548;SDS011;65391;52.068;4.542;2022-12-16T00:01:18;3.5;;;0.9;;
76548;SDS011;65391;52.068;4.542;2022-12-16T00:03:45;3.5;;;0.9;;
76548;SDS011;65391;52.068;4.542;2022-12-16T00:06:07;3.5;;;0.9;;
76548;SDS011;65391;52.068;4.542;2022-12-16T00:08:32;3.5;;;0.9;;
76548;SDS011;65391;52.068;4.542;2022-12-16T00:10:57;3.6;;;0.7;;
76548;SDS011;65391;52.068;4.542;2022-12-16T00:13:21;3.6;;;0.7;;
76548;SDS011;65391;52.068;4.542;2022-12-16T00:15:46;3.6;;;0.7;;
76548;SDS011;65391;52.068;4.542;2022-12-16T00:18:11;3.6;;;0.7;;
76548;SDS011;65391;52.068;4.542;2022-12-16T00:20:36;1.5;;;0.7;;
76548;SDS011;65391;52.068;4.542;2022-12-16T00:23:01;1.5;;;0.7;;
76548;SDS011;65391;52.068;4.542;2022-12-16T00:25:26;1.5;;;0.7;;
76548;SDS011;65391;52.068;4.542;2022-12-16T00:27:51;1.5;;;0.7;;
76548;SDS011;65391;52.068;4.542;2022-12-16T00:30:16;4.4;;;0.9;;
76548;SDS011;65391;52.068;4.542;2022-12-16T00:32:41;4.4;;;0.9;;
76548;SDS011;65391;52.068;4.542;2022-12-16T00:35:06;4.4;;;0.9;;
76548;SDS011;65391;52.068;4.542;2022-12-16T00:37:31;4.4;;;0.9;;
76548;SDS011;65391;52.068;4.542;2022-12-16T00:39:56;1.6;;;0.8;;
76548;SDS011;65391;52.068;4.542;2022-12-16T00:42:21;1.6;;;0.8;;
76548;SDS011;65391;52.068;4.542;2022-12-16T00:44:46;1.6;;;0.8;;
76548;SDS011;65391;52.068;4.542;2022-12-16T00:47:11;1.6;;;0.8;;
76548;SDS011;65391;52.068;4.542;2022-12-16T00:49:36;3.1;;;0.9;;
76548;SDS011;65391;52.068;4.542;2022-12-16T00:52:01;3.1;;;0.9;;
76548;SDS011;65391;52.068;4.542;2022-12-16T00:54:26;3.1;;;0.9;;
76548;SDS011;65391;52.068;4.542;2022-12-16T00:56:51;3.1;;;0.9;;
76548;SDS011;65391;52.068;4.542;2022-12-16T00:59:16;4.2;;;1;;
76548;SDS011;65391;52.068;4.542;2022-12-16T01:01:41;4.2;;;1;;
76548;SDS011;65391;52.068;4.542;2022-12-16T01:04:06;4.2;;;1;;
76548;SDS011;65391;52.068;4.542;2022-12-16T01:06:31;4.2;;;1;;
76548;SDS011;65391;52.068;4.542;2022-12-16T01:08:56;4.2;;;1;;
76548;SDS011;65391;52.068;4.542;2022-12-16T01:11:21;4.4;;;1.4;;
76548;SDS011;65391;52.068;4.542;2022-12-16T01:13:48;4.4;;;1.4;;
76548;SDS011;65391;52.068;4.542;2022-12-16T01:16:11;4.4;;;1.4;;
76548;SDS011;65391;52.068;4.542;2022-12-16T01:18:36;4.4;;;1.4;;
76548;SDS011;65391;52.068;4.542;2022-12-16T01:21:02;7.7;;;1.4;;
76548;SDS011;65391;52.068;4.542;2022-12-16T01:23:26;7.7;;;1.4;;
76548;SDS011;65391;52.068;4.542;2022-12-16T01:25:51;7.7;;;1.4;;
76548;SDS011;65391;52.068;4.542;2022-12-16T01:28:16;7.7;;;1.4;;
76548;SDS011;65391;52.068;4.542;2022-12-16T01:30:41;5.4;;;1.3;;
76548;SDS011;65391;52.068;4.542;2022-12-16T01:33:06;5.4;;;1.3;;
76548;SDS011;65391;52.068;4.542;2022-12-16T01:35:31;5.4;;;1.3;;
76548;SDS011;65391;52.068;4.542;2022-12-16T01:37:56;5.4;;;1.3;;
76548;SDS011;65391;52.068;4.542;2022-12-16T01:40:22;6.1;;;1;;
76548;SDS011;65391;52.068;4.542;2022-12-16T01:42:46;6.1;;;1;;
76548;SDS011;65391;52.068;4.542;2022-12-16T01:45:28;6.1;;;1;;
76548;SDS011;65391;52.068;4.542;2022-12-16T01:47:36;6.1;;;1;;
76548;SDS011;65391;52.068;4.542;2022-12-16T01:50:03;5.5;;;0.9;;
76548;SDS011;65391;52.068;4.542;2022-12-16T01:52:29;5.5;;;0.9;;
76548;SDS011;65391;52.068;4.542;2022-12-16T01:54:52;5.5;;;0.9;;
76548;SDS011;65391;52.068;4.542;2022-12-16T01:57:18;5.5;;;0.9;;
76548;SDS011;65391;52.068;4.542;2022-12-16T01:59:42;4.8;;;1.2;;
76548;SDS011;65391;52.068;4.542;2022-12-16T02:02:06;4.8;;;1.2;;
76548;SDS011;65391;52.068;4.542;2022-12-16T02:04:31;4.8;;;1.2;;
76548;SDS011;65391;52.068;4.542;2022-12-16T02:06:57;4.8;;;1.2;;
76548;SDS011;65391;52.068;4.542;2022-12-16T02:09:21;6.1;;;1.2;;
76548;SDS011;65391;52.068;4.542;2022-12-16T02:11:56;6.1;;;1.2;;
76548;SDS011;65391;52.068;4.542;2022-12-16T02:14:24;6.1;;;1.2;;
76548;SDS011;65391;52.068;4.542;2022-12-16T02:16:38;6.1;;;1.2;;
76548;SDS011;65391;52.068;4.542;2022-12-16T02:19:07;6.1;;;1.2;;
76548;SDS011;65391;52.068;4.542;2022-12-16T02:21:34;4.2;;;0.9;;
76548;SDS011;65391;52.068;4.542;2022-12-16T02:26:27;4.2;;;0.9;;
76548;SDS011;65391;52.068;4.542;2022-12-16T02:28:53;4.2;;;0.9;;
76548;SDS011;65391;52.068;4.542;2022-12-16T02:31:15;3.6;;;1;;
76548;SDS011;65391;52.068;4.542;2022-12-16T02:33:40;3.6;;;1;;
76548;SDS011;65391;52.068;4.542;2022-12-16T02:35:59;3.6;;;1;;
76548;SDS011;65391;52.068;4.542;2022-12-16T02:38:23;3.6;;;1;;
76548;SDS011;65391;52.068;4.542;2022-12-16T02:40:50;5;;;0.8;;
76548;SDS011;65391;52.068;4.542;2022-12-16T02:43:14;5;;;0.8;;
76548;SDS011;65391;52.068;4.542;2022-12-16T02:45:36;5;;;0.8;;
76548;SDS011;65391;52.068;4.542;2022-12-16T02:48:01;5;;;0.8;;
76548;SDS011;65391;52.068;4.542;2022-12-16T02:50:27;7.2;;;1.3;;
76548;SDS011;65391;52.068;4.542;2022-12-16T02:52:51;7.2;;;1.3;;
76548;SDS011;65391;52.068;4.542;2022-12-16T02:55:17;7.2;;;1.3;;
76548;SDS011;65391;52.068;4.542;2022-12-16T02:57:49;7.2;;;1.3;;
76548;SDS011;65391;52.068;4.542;2022-12-16T03:00:07;4.7;;;0.8;;
76548;SDS011;65391;52.068;4.542;2022-12-16T03:02:35;4.7;;;0.8;;
76548;SDS011;65391;52.068;4.542;2022-12-16T03:04:58;4.7;;;0.8;;
76548;SDS011;65391;52.068;4.542;2022-12-16T03:07:22;4.7;;;0.8;;
76548;SDS011;65391;52.068;4.542;2022-12-16T03:09:46;7.1;;;1;;
76548;SDS011;65391;52.068;4.542;2022-12-16T03:12:13;7.1;;;1;;
76548;SDS011;65391;52.068;4.542;2022-12-16T03:14:37;7.1;;;1;;
76548;SDS011;65391;52.068;4.542;2022-12-16T03:17:01;7.1;;;1;;
76548;SDS011;65391;52.068;4.542;2022-12-16T03:19:26;10.5;;;1.3;;
76548;SDS011;65391;52.068;4.542;2022-12-16T03:21:54;10.5;;;1.3;;
76548;SDS011;65391;52.068;4.542;2022-12-16T03:24:16;10.5;;;1.3;;
76548;SDS011;65391;52.068;4.542;2022-12-16T03:26:43;10.5;;;1.3;;
76548;SDS011;65391;52.068;4.542;2022-12-16T03:29:07;10.5;;;1.3;;
76548;SDS011;65391;52.068;4.542;2022-12-16T03:31:34;6;;;1.2;;
76548;SDS011;65391;52.068;4.542;2022-12-16T03:33:58;6;;;1.2;;
76548;SDS011;65391;52.068;4.542;2022-12-16T03:36:21;6;;;1.2;;
76548;SDS011;65391;52.068;4.542;2022-12-16T03:38:46;6;;;1.2;;
76548;SDS011;65391;52.068;4.542;2022-12-16T03:41:12;8;;;1.3;;
76548;SDS011;65391;52.068;4.542;2022-12-16T03:43:36;8;;;1.3;;
76548;SDS011;65391;52.068;4.542;2022-12-16T03:46:03;8;;;1.3;;
76548;SDS011;65391;52.068;4.542;2022-12-16T03:48:26;8;;;1.3;;
76548;SDS011;65391;52.068;4.542;2022-12-16T03:50:51;9;;;1.3;;
76548;SDS011;65391;52.068;4.542;2022-12-16T03:53:17;9;;;1.3;;
76548;SDS011;65391;52.068;4.542;2022-12-16T03:55:41;9;;;1.3;;
76548;SDS011;65391;52.068;4.542;2022-12-16T03:58:06;9;;;1.3;;
76548;SDS011;65391;52.068;4.542;2022-12-16T04:00:32;6.1;;;1.1;;
76548;SDS011;65391;52.068;4.542;2022-12-16T04:02:56;6.1;;;1.1;;
76548;SDS011;65391;52.068;4.542;2022-12-16T04:05:21;6.1;;;1.1;;
76548;SDS011;65391;52.068;4.542;2022-12-16T04:07:46;6.1;;;1.1;;
76548;SDS011;65391;52.068;4.542;2022-12-16T04:10:12;6.2;;;1.1;;
76548;SDS011;65391;52.068;4.542;2022-12-16T04:12:41;6.2;;;1.1;;
76548;SDS011;65391;52.068;4.542;2022-12-16T04:15:02;6.2;;;1.1;;
76548;SDS011;65391;52.068;4.542;2022-12-16T04:17:26;6.2;;;1.1;;
76548;SDS011;65391;52.068;4.542;2022-12-16T04:19:51;5.7;;;1;;
76548;SDS011;65391;52.068;4.542;2022-12-16T04:22:17;5.7;;;1;;
76548;SDS011;65391;52.068;4.542;2022-12-16T04:24:42;5.7;;;1;;
76548;SDS011;65391;52.068;4.542;2022-12-16T04:27:06;5.7;;;1;;
76548;SDS011;65391;52.068;4.542;2022-12-16T04:29:32;6.6;;;1;;
76548;SDS011;65391;52.068;4.542;2022-12-16T04:31:57;6.6;;;1;;
76548;SDS011;65391;52.068;4.542;2022-12-16T04:34:22;6.6;;;1;;
76548;SDS011;65391;52.068;4.542;2022-12-16T04:36:46;6.6;;;1;;
76548;SDS011;65391;52.068;4.542;2022-12-16T04:39:12;6.6;;;1;;
76548;SDS011;65391;52.068;4.542;2022-12-16T04:41:37;4;;;1.2;;
76548;SDS011;65391;52.068;4.542;2022-12-16T04:44:02;4;;;1.2;;
76548;SDS011;65391;52.068;4.542;2022-12-16T04:46:27;4;;;1.2;;
76548;SDS011;65391;52.068;4.542;2022-12-16T04:48:52;4;;;1.2;;
76548;SDS011;65391;52.068;4.542;2022-12-16T04:51:17;7.5;;;1.3;;
76548;SDS011;65391;52.068;4.542;2022-12-16T04:53:42;7.5;;;1.3;;
76548;SDS011;65391;52.068;4.542;2022-12-16T04:56:07;7.5;;;1.3;;
76548;SDS011;65391;52.068;4.542;2022-12-16T04:58:32;7.5;;;1.3;;
76548;SDS011;65391;52.068;4.542;2022-12-16T05:00:57;6.7;;;1.5;;
76548;SDS011;65391;52.068;4.542;2022-12-16T05:03:22;6.7;;;1.5;;
76548;SDS011;65391;52.068;4.542;2022-12-16T05:05:47;6.7;;;1.5;;
76548;SDS011;65391;52.068;4.542;2022-12-16T05:08:12;6.7;;;1.5;;
76548;SDS011;65391;52.068;4.542;2022-12-16T05:10:37;7.2;;;1.5;;
76548;SDS011;65391;52.068;4.542;2022-12-16T05:13:02;7.2;;;1.5;;
76548;SDS011;65391;52.068;4.542;2022-12-16T05:15:27;7.2;;;1.5;;
76548;SDS011;65391;52.068;4.542;2022-12-16T05:17:52;7.2;;;1.5;;
76548;SDS011;65391;52.068;4.542;2022-12-16T05:20:17;3.4;;;1.3;;
76548;SDS011;65391;52.068;4.542;2022-12-16T05:22:42;3.4;;;1.3;;
76548;SDS011;65391;52.068;4.542;2022-12-16T05:25:07;3.4;;;1.3;;
76548;SDS011;65391;52.068;4.542;2022-12-16T05:27:32;3.4;;;1.3;;
76548;SDS011;65391;52.068;4.542;2022-12-16T05:29:57;6.7;;;1.3;;
76548;SDS011;65391;52.068;4.542;2022-12-16T05:32:22;6.7;;;1.3;;
76548;SDS011;65391;52.068;4.542;2022-12-16T05:34:47;6.7;;;1.3;;
76548;SDS011;65391;52.068;4.542;2022-12-16T05:37:12;6.7;;;1.3;;
76548;SDS011;65391;52.068;4.542;2022-12-16T05:39:37;8.6;;;1.3;;
76548;SDS011;65391;52.068;4.542;2022-12-16T05:42:02;8.6;;;1.3;;
76548;SDS011;65391;52.068;4.542;2022-12-16T05:44:27;8.6;;;1.3;;
76548;SDS011;65391;52.068;4.542;2022-12-16T05:46:52;8.6;;;1.3;;
76548;SDS011;65391;52.068;4.542;2022-12-16T05:49:17;8.6;;;1.3;;
76548;SDS011;65391;52.068;4.542;2022-12-16T05:51:42;5.4;;;1.4;;
76548;SDS011;65391;52.068;4.542;2022-12-16T05:54:07;5.4;;;1.4;;
76548;SDS011;65391;52.068;4.542;2022-12-16T05:56:32;5.4;;;1.4;;
76548;SDS011;65391;52.068;4.542;2022-12-16T05:58:57;5.4;;;1.4;;
76548;SDS011;65391;52.068;4.542;2022-12-16T06:01:22;8.6;;;1.5;;
76548;SDS011;65391;52.068;4.542;2022-12-16T06:03:47;8.6;;;1.5;;
76548;SDS011;65391;52.068;4.542;2022-12-16T06:06:12;8.6;;;1.5;;
76548;SDS011;65391;52.068;4.542;2022-12-16T06:08:37;8.6;;;1.5;;
76548;SDS011;65391;52.068;4.542;2022-12-16T06:11:02;7.8;;;1.7;;
76548;SDS011;65391;52.068;4.542;2022-12-16T06:13:27;7.8;;;1.7;;
76548;SDS011;65391;52.068;4.542;2022-12-16T06:15:52;7.8;;;1.7;;
76548;SDS011;65391;52.068;4.542;2022-12-16T06:18:17;7.8;;;1.7;;
76548;SDS011;65391;52.068;4.542;2022-12-16T06:20:42;5.5;;;2;;
76548;SDS011;65391;52.068;4.542;2022-12-16T06:23:07;5.5;;;2;;
76548;SDS011;65391;52.068;4.542;2022-12-16T06:25:32;5.5;;;2;;
76548;SDS011;65391;52.068;4.542;2022-12-16T06:27:57;5.5;;;2;;
76548;SDS011;65391;52.068;4.542;2022-12-16T06:30:22;7.2;;;2.1;;
76548;SDS011;65391;52.068;4.542;2022-12-16T06:32:47;7.2;;;2.1;;
76548;SDS011;65391;52.068;4.542;2022-12-16T06:35:12;7.2;;;2.1;;
76548;SDS011;65391;52.068;4.542;2022-12-16T06:37:37;7.2;;;2.1;;
76548;SDS011;65391;52.068;4.542;2022-12-16T06:40:02;7.8;;;1.7;;
76548;SDS011;65391;52.068;4.542;2022-12-16T06:42:27;7.8;;;1.7;;
76548;SDS011;65391;52.068;4.542;2022-12-16T06:44:52;7.8;;;1.7;;
76548;SDS011;65391;52.068;4.542;2022-12-16T06:47:17;7.8;;;1.7;;
76548;SDS011;65391;52.068;4.542;2022-12-16T06:49:42;6.4;;;2;;
76548;SDS011;65391;52.068;4.542;2022-12-16T06:52:07;6.4;;;2;;
76548;SDS011;65391;52.068;4.542;2022-12-16T06:54:32;6.4;;;2;;
76548;SDS011;65391;52.068;4.542;2022-12-16T06:56:57;6.4;;;2;;
76548;SDS011;65391;52.068;4.542;2022-12-16T06:59:22;6.4;;;2;;
76548;SDS011;65391;52.068;4.542;2022-12-16T07:01:47;6.3;;;2.3;;
76548;SDS011;65391;52.068;4.542;2022-12-16T07:04:12;6.3;;;2.3;;
76548;SDS011;65391;52.068;4.542;2022-12-16T07:06:37;6.3;;;2.3;;
76548;SDS011;65391;52.068;4.542;2022-12-16T07:09:02;6.3;;;2.3;;
76548;SDS011;65391;52.068;4.542;2022-12-16T07:11:27;10.4;;;2.1;;
76548;SDS011;65391;52.068;4.542;2022-12-16T07:13:52;10.4;;;2.1;;
76548;SDS011;65391;52.068;4.542;2022-12-16T07:16:17;10.4;;;2.1;;
76548;SDS011;65391;52.068;4.542;2022-12-16T07:18:42;10.4;;;2.1;;
76548;SDS011;65391;52.068;4.542;2022-12-16T07:21:07;7.9;;;1.9;;
76548;SDS011;65391;52.068;4.542;2022-12-16T07:23:32;7.9;;;1.9;;
76548;SDS011;65391;52.068;4.542;2022-12-16T07:25:57;7.9;;;1.9;;
76548;SDS011;65391;52.068;4.542;2022-12-16T07:28:22;7.9;;;1.9;;
76548;SDS011;65391;52.068;4.542;2022-12-16T07:30:47;8.4;;;2.1;;
76548;SDS011;65391;52.068;4.542;2022-12-16T07:33:12;8.4;;;2.1;;
76548;SDS011;65391;52.068;4.542;2022-12-16T07:35:37;8.4;;;2.1;;
76548;SDS011;65391;52.068;4.542;2022-12-16T07:38:02;8.4;;;2.1;;
76548;SDS011;65391;52.068;4.542;2022-12-16T07:40:27;8.2;;;2.5;;
76548;SDS011;65391;52.068;4.542;2022-12-16T07:42:52;8.2;;;2.5;;
76548;SDS011;65391;52.068;4.542;2022-12-16T07:45:17;8.2;;;2.5;;
76548;SDS011;65391;52.068;4.542;2022-12-16T07:47:45;8.2;;;2.5;;
76548;SDS011;65391;52.068;4.542;2022-12-16T07:50:07;7.4;;;1.8;;
76548;SDS011;65391;52.068;4.542;2022-12-16T07:52:32;7.4;;;1.8;;
76548;SDS011;65391;52.068;4.542;2022-12-16T07:54:57;7.4;;;1.8;;
76548;SDS011;65391;52.068;4.542;2022-12-16T07:57:22;7.4;;;1.8;;
76548;SDS011;65391;52.068;4.542;2022-12-16T07:59:47;6.1;;;2.4;;
76548;SDS011;65391;52.068;4.542;2022-12-16T08:02:12;6.1;;;2.4;;
76548;SDS011;65391;52.068;4.542;2022-12-16T08:04:37;6.1;;;2.4;;
76548;SDS011;65391;52.068;4.542;2022-12-16T08:07:02;6.1;;;2.4;;
76548;SDS011;65391;52.068;4.542;2022-12-16T08:09:27;6.1;;;2.4;;
76548;SDS011;65391;52.068;4.542;2022-12-16T08:11:52;6.7;;;2;;
76548;SDS011;65391;52.068;4.542;2022-12-16T08:14:18;6.7;;;2;;
76548;SDS011;65391;52.068;4.542;2022-12-16T08:16:42;6.7;;;2;;
76548;SDS011;65391;52.068;4.542;2022-12-16T08:19:07;6.7;;;2;;
76548;SDS011;65391;52.068;4.542;2022-12-16T08:21:32;12.3;;;3.4;;
76548;SDS011;65391;52.068;4.542;2022-12-16T08:23:57;12.3;;;3.4;;
76548;SDS011;65391;52.068;4.542;2022-12-16T08:26:22;12.3;;;3.4;;
76548;SDS011;65391;52.068;4.542;2022-12-16T08:28:47;12.3;;;3.4;;
76548;SDS011;65391;52.068;4.542;2022-12-16T08:31:12;7.3;;;2.7;;
76548;SDS011;65391;52.068;4.542;2022-12-16T08:33:37;7.3;;;2.7;;
76548;SDS011;65391;52.068;4.542;2022-12-16T08:36:02;7.3;;;2.7;;
76548;SDS011;65391;52.068;4.542;2022-12-16T08:38:27;7.3;;;2.7;;
76548;SDS011;65391;52.068;4.542;2022-12-16T08:40:53;7.4;;;2.6;;
76548;SDS011;65391;52.068;4.542;2022-12-16T08:43:17;7.4;;;2.6;;
76548;SDS011;65391;52.068;4.542;2022-12-16T08:45:42;7.4;;;2.6;;
76548;SDS011;65391;52.068;4.542;2022-12-16T08:48:08;7.4;;;2.6;;
76548;SDS011;65391;52.068;4.542;2022-12-16T08:50:32;10.5;;;2.6;;
76548;SDS011;65391;52.068;4.542;2022-12-16T08:52:57;10.5;;;2.6;;
76548;SDS011;65391;52.068;4.542;2022-12-16T08:55:22;10.5;;;2.6;;
76548;SDS011;65391;52.068;4.542;2022-12-16T08:57:52;10.5;;;2.6;;
76548;SDS011;65391;52.068;4.542;2022-12-16T09:00:13;9.5;;;2.7;;
76548;SDS011;65391;52.068;4.542;2022-12-16T09:02:37;9.5;;;2.7;;
76548;SDS011;65391;52.068;4.542;2022-12-16T09:05:02;9.5;;;2.7;;
76548;SDS011;65391;52.068;4.542;2022-12-16T09:07:27;9.5;;;2.7;;
76548;SDS011;65391;52.068;4.542;2022-12-16T09:09:52;9.5;;;2.7;;
76548;SDS011;65391;52.068;4.542;2022-12-16T09:12:17;7;;;3.6;;
76548;SDS011;65391;52.068;4.542;2022-12-16T09:14:42;7;;;3.6;;
76548;SDS011;65391;52.068;4.542;2022-12-16T09:17:07;7;;;3.6;;
76548;SDS011;65391;52.068;4.542;2022-12-16T09:19:32;7;;;3.6;;
76548;SDS011;65391;52.068;4.542;2022-12-16T09:21:57;7.8;;;3.1;;
76548;SDS011;65391;52.068;4.542;2022-12-16T09:24:22;7.8;;;3.1;;
76548;SDS011;65391;52.068;4.542;2022-12-16T09:26:47;7.8;;;3.1;;
76548;SDS011;65391;52.068;4.542;2022-12-16T09:29:12;7.8;;;3.1;;
76548;SDS011;65391;52.068;4.542;2022-12-16T09:31:37;9.7;;;2.7;;
76548;SDS011;65391;52.068;4.542;2022-12-16T09:34:02;9.7;;;2.7;;
76548;SDS011;65391;52.068;4.542;2022-12-16T09:36:27;9.7;;;2.7;;
76548;SDS011;65391;52.068;4.542;2022-12-16T09:38:52;9.7;;;2.7;;
76548;SDS011;65391;52.068;4.542;2022-12-16T09:41:29;5.4;;;2.7;;
76548;SDS011;65391;52.068;4.542;2022-12-16T09:43:49;5.4;;;2.7;;
76548;SDS011;65391;52.068;4.542;2022-12-16T09:46:09;5.4;;;2.7;;
76548;SDS011;65391;52.068;4.542;2022-12-16T09:48:35;5.4;;;2.7;;
76548;SDS011;65391;52.068;4.542;2022-12-16T09:50:57;9.9;;;3.3;;
76548;SDS011;65391;52.068;4.542;2022-12-16T09:53:22;9.9;;;3.3;;
76548;SDS011;65391;52.068;4.542;2022-12-16T09:55:47;9.9;;;3.3;;
76548;SDS011;65391;52.068;4.542;2022-12-16T09:58:12;9.9;;;3.3;;
76548;SDS011;65391;52.068;4.542;2022-12-16T10:00:37;8.6;;;4.1;;
76548;SDS011;65391;52.068;4.542;2022-12-16T10:03:03;8.6;;;4.1;;
76548;SDS011;65391;52.068;4.542;2022-12-16T10:05:30;8.6;;;4.1;;
76548;SDS011;65391;52.068;4.542;2022-12-16T10:07:56;8.6;;;4.1;;
76548;SDS011;65391;52.068;4.542;2022-12-16T10:10:20;8.4;;;3;;
76548;SDS011;65391;52.068;4.542;2022-12-16T10:12:44;8.4;;;3;;
76548;SDS011;65391;52.068;4.542;2022-12-16T10:15:13;8.4;;;3;;
76548;SDS011;65391;52.068;4.542;2022-12-16T10:17:32;8.4;;;3;;
76548;SDS011;65391;52.068;4.542;2022-12-16T10:19:59;8.4;;;3;;
76548;SDS011;65391;52.068;4.542;2022-12-16T10:22:26;6;;;2.3;;
76548;SDS011;65391;52.068;4.542;2022-12-16T10:24:51;6;;;2.3;;
76548;SDS011;65391;52.068;4.542;2022-12-16T10:27:13;6;;;2.3;;
76548;SDS011;65391;52.068;4.542;2022-12-16T10:29:38;6;;;2.3;;
76548;SDS011;65391;52.068;4.542;2022-12-16T10:32:07;5.2;;;1.9;;
76548;SDS011;65391;52.068;4.542;2022-12-16T10:34:29;5.2;;;1.9;;
76548;SDS011;65391;52.068;4.542;2022-12-16T10:36:52;5.2;;;1.9;;
76548;SDS011;65391;52.068;4.542;2022-12-16T10:39:21;5.2;;;1.9;;
76548;SDS011;65391;52.068;4.542;2022-12-16T10:41:45;6.1;;;2.2;;
76548;SDS011;65391;52.068;4.542;2022-12-16T10:44:14;6.1;;;2.2;;
76548;SDS011;65391;52.068;4.542;2022-12-16T10:46:34;6.1;;;2.2;;
76548;SDS011;65391;52.068;4.542;2022-12-16T10:48:58;6.1;;;2.2;;
76548;SDS011;65391;52.068;4.542;2022-12-16T10:51:23;7.3;;;2.4;;
76548;SDS011;65391;52.068;4.542;2022-12-16T10:53:48;7.3;;;2.4;;
76548;SDS011;65391;52.068;4.542;2022-12-16T10:56:19;7.3;;;2.4;;
76548;SDS011;65391;52.068;4.542;2022-12-16T10:58:42;7.3;;;2.4;;
76548;SDS011;65391;52.068;4.542;2022-12-16T11:01:04;3.9;;;2.5;;
76548;SDS011;65391;52.068;4.542;2022-12-16T11:03:28;3.9;;;2.5;;
76548;SDS011;65391;52.068;4.542;2022-12-16T11:05:52;3.9;;;2.5;;
76548;SDS011;65391;52.068;4.542;2022-12-16T11:08:23;3.9;;;2.5;;
76548;SDS011;65391;52.068;4.542;2022-12-16T11:10:43;7;;;2.3;;
76548;SDS011;65391;52.068;4.542;2022-12-16T11:13:11;7;;;2.3;;
76548;SDS011;65391;52.068;4.542;2022-12-16T11:15:32;7;;;2.3;;
76548;SDS011;65391;52.068;4.542;2022-12-16T11:20:24;8.2;;;3.3;;
76548;SDS011;65391;52.068;4.542;2022-12-16T11:22:47;8.2;;;3.3;;
76548;SDS011;65391;52.068;4.542;2022-12-16T11:25:14;8.2;;;3.3;;
76548;SDS011;65391;52.068;4.542;2022-12-16T11:27:38;8.2;;;3.3;;
76548;SDS011;65391;52.068;4.542;2022-12-16T11:30:10;8.2;;;3.3;;
76548;SDS011;65391;52.068;4.542;2022-12-16T11:32:27;6.5;;;2.4;;
76548;SDS011;65391;52.068;4.542;2022-12-16T11:34:54;6.5;;;2.4;;
76548;SDS011;65391;52.068;4.542;2022-12-16T11:37:17;6.5;;;2.4;;
76548;SDS011;65391;52.068;4.542;2022-12-16T11:39:42;6.5;;;2.4;;
76548;SDS011;65391;52.068;4.542;2022-12-16T11:42:09;6.2;;;2.7;;
76548;SDS011;65391;52.068;4.542;2022-12-16T11:44:33;6.2;;;2.7;;
76548;SDS011;65391;52.068;4.542;2022-12-16T11:46:57;6.2;;;2.7;;
76548;SDS011;65391;52.068;4.542;2022-12-16T11:49:26;6.2;;;2.7;;
76548;SDS011;65391;52.068;4.542;2022-12-16T11:51:51;4.3;;;2.3;;
76548;SDS011;65391;52.068;4.542;2022-12-16T11:54:14;4.3;;;2.3;;
76548;SDS011;65391;52.068;4.542;2022-12-16T11:56:39;4.3;;;2.3;;
76548;SDS011;65391;52.068;4.542;2022-12-16T11:59:05;4.3;;;2.3;;
76548;SDS011;65391;52.068;4.542;2022-12-16T12:01:29;4.6;;;2.3;;
76548;SDS011;65391;52.068;4.542;2022-12-16T12:03:53;4.6;;;2.3;;
76548;SDS011;65391;52.068;4.542;2022-12-16T12:06:20;4.6;;;2.3;;
76548;SDS011;65391;52.068;4.542;2022-12-16T12:08:45;4.6;;;2.3;;
76548;SDS011;65391;52.068;4.542;2022-12-16T12:11:09;5.2;;;3;;
76548;SDS011;65391;52.068;4.542;2022-12-16T12:13:40;5.2;;;3;;
76548;SDS011;65391;52.068;4.542;2022-12-16T12:16:00;5.2;;;3;;
76548;SDS011;65391;52.068;4.542;2022-12-16T12:18:36;5.2;;;3;;
76548;SDS011;65391;52.068;4.542;2022-12-16T12:20:51;7.4;;;2.9;;
76548;SDS011;65391;52.068;4.542;2022-12-16T12:23:14;7.4;;;2.9;;
76548;SDS011;65391;52.068;4.542;2022-12-16T12:25:41;7.4;;;2.9;;
76548;SDS011;65391;52.068;4.542;2022-12-16T12:28:06;7.4;;;2.9;;
76548;SDS011;65391;52.068;4.542;2022-12-16T12:30:27;6.5;;;3;;
76548;SDS011;65391;52.068;4.542;2022-12-16T12:33:02;6.5;;;3;;
76548;SDS011;65391;52.068;4.542;2022-12-16T12:35:26;6.5;;;3;;
76548;SDS011;65391;52.068;4.542;2022-12-16T12:37:45;6.5;;;3;;
76548;SDS011;65391;52.068;4.542;2022-12-16T12:40:15;6.5;;;3;;
76548;SDS011;65391;52.068;4.542;2022-12-16T12:42:35;4.9;;;2.9;;
76548;SDS011;65391;52.068;4.542;2022-12-16T12:45:05;4.9;;;2.9;;
76548;SDS011;65391;52.068;4.542;2022-12-16T12:47:23;4.9;;;2.9;;
76548;SDS011;65391;52.068;4.542;2022-12-16T12:49:51;4.9;;;2.9;;
76548;SDS011;65391;52.068;4.542;2022-12-16T12:52:19;8.1;;;2.7;;
76548;SDS011;65391;52.068;4.542;2022-12-16T12:54:41;8.1;;;2.7;;
76548;SDS011;65391;52.068;4.542;2022-12-16T12:57:03;8.1;;;2.7;;
76548;SDS011;65391;52.068;4.542;2022-12-16T12:59:29;8.1;;;2.7;;
76548;SDS011;65391;52.068;4.542;2022-12-16T13:01:53;5.8;;;2.3;;
76548;SDS011;65391;52.068;4.542;2022-12-16T13:04:18;5.8;;;2.3;;
76548;SDS011;65391;52.068;4.542;2022-12-16T13:06:43;5.8;;;2.3;;
76548;SDS011;65391;52.068;4.542;2022-12-16T13:09:25;5.8;;;2.3;;
76548;SDS011;65391;52.068;4.542;2022-12-16T13:11:33;5.4;;;2.6;;
76548;SDS011;65391;52.068;4.542;2022-12-16T13:13:58;5.4;;;2.6;;
76548;SDS011;65391;52.068;4.542;2022-12-16T13:16:55;5.4;;;2.6;;
76548;SDS011;65391;52.068;4.542;2022-12-16T13:18:48;5.4;;;2.6;;
76548;SDS011;65391;52.068;4.542;2022-12-16T13:22:27;7.3;;;3;;
76548;SDS011;65391;52.068;4.542;2022-12-16T13:23:38;7.3;;;3;;
76548;SDS011;65391;52.068;4.542;2022-12-16T13:26:03;7.3;;;3;;
76548;SDS011;65391;52.068;4.542;2022-12-16T13:28:30;7.3;;;3;;
76548;SDS011;65391;52.068;4.542;2022-12-16T13:30:58;5.1;;;2.7;;
76548;SDS011;65391;52.068;4.542;2022-12-16T13:33:21;5.1;;;2.7;;
76548;SDS011;65391;52.068;4.542;2022-12-16T13:35:51;5.1;;;2.7;;
76548;SDS011;65391;52.068;4.542;2022-12-16T13:38:18;5.1;;;2.7;;
76548;SDS011;65391;52.068;4.542;2022-12-16T13:40:33;4.7;;;3.3;;
76548;SDS011;65391;52.068;4.542;2022-12-16T13:42:58;4.7;;;3.3;;
76548;SDS011;65391;52.068;4.542;2022-12-16T13:45:29;4.7;;;3.3;;
76548;SDS011;65391;52.068;4.542;2022-12-16T13:48:04;4.7;;;3.3;;
76548;SDS011;65391;52.068;4.542;2022-12-16T13:50:34;4.7;;;3.3;;
76548;SDS011;65391;52.068;4.542;2022-12-16T13:52:43;6.1;;;2.9;;
76548;SDS011;65391;52.068;4.542;2022-12-16T13:55:11;6.1;;;2.9;;
76548;SDS011;65391;52.068;4.542;2022-12-16T13:57:28;6.1;;;2.9;;
76548;SDS011;65391;52.068;4.542;2022-12-16T13:59:53;6.1;;;2.9;;
76548;SDS011;65391;52.068;4.542;2022-12-16T14:02:23;6.8;;;3.5;;
76548;SDS011;65391;52.068;4.542;2022-12-16T14:04:44;6.8;;;3.5;;
76548;SDS011;65391;52.068;4.542;2022-12-16T14:07:08;6.8;;;3.5;;
76548;SDS011;65391;52.068;4.542;2022-12-16T14:09:34;6.8;;;3.5;;
76548;SDS011;65391;52.068;4.542;2022-12-16T14:11:59;14.2;;;3.7;;
76548;SDS011;65391;52.068;4.542;2022-12-16T14:14:25;14.2;;;3.7;;
76548;SDS011;65391;52.068;4.542;2022-12-16T14:16:50;14.2;;;3.7;;
76548;SDS011;65391;52.068;4.542;2022-12-16T14:19:17;14.2;;;3.7;;
76548;SDS011;65391;52.068;4.542;2022-12-16T14:21:40;6.6;;;2.9;;
76548;SDS011;65391;52.068;4.542;2022-12-16T14:24:05;6.6;;;2.9;;
76548;SDS011;65391;52.068;4.542;2022-12-16T14:26:28;6.6;;;2.9;;
76548;SDS011;65391;52.068;4.542;2022-12-16T14:28:53;6.6;;;2.9;;
76548;SDS011;65391;52.068;4.542;2022-12-16T14:31:20;5.7;;;3.1;;
76548;SDS011;65391;52.068;4.542;2022-12-16T14:33:43;5.7;;;3.1;;
76548;SDS011;65391;52.068;4.542;2022-12-16T14:36:24;5.7;;;3.1;;
76548;SDS011;65391;52.068;4.542;2022-12-16T14:38:34;5.7;;;3.1;;
76548;SDS011;65391;52.068;4.542;2022-12-16T14:40:58;6.3;;;3.9;;
76548;SDS011;65391;52.068;4.542;2022-12-16T14:43:24;6.3;;;3.9;;
76548;SDS011;65391;52.068;4.542;2022-12-16T14:45:48;6.3;;;3.9;;
76548;SDS011;65391;52.068;4.542;2022-12-16T14:48:20;6.3;;;3.9;;
76548;SDS011;65391;52.068;4.542;2022-12-16T14:50:38;8.2;;;4.7;;
76548;SDS011;65391;52.068;4.542;2022-12-16T14:53:09;8.2;;;4.7;;
76548;SDS011;65391;52.068;4.542;2022-12-16T14:55:29;8.2;;;4.7;;
76548;SDS011;65391;52.068;4.542;2022-12-16T14:58:01;8.2;;;4.7;;
76548;SDS011;65391;52.068;4.542;2022-12-16T15:00:19;8.2;;;4.7;;
76548;SDS011;65391;52.068;4.542;2022-12-16T15:02:43;9.9;;;5.2;;
76548;SDS011;65391;52.068;4.542;2022-12-16T15:05:08;9.9;;;5.2;;
76548;SDS011;65391;52.068;4.542;2022-12-16T15:07:34;9.9;;;5.2;;
76548;SDS011;65391;52.068;4.542;2022-12-16T15:09:58;9.9;;;5.2;;
76548;SDS011;65391;52.068;4.542;2022-12-16T15:12:25;5.8;;;3.7;;